Schedule Details

Flight Number: CPX331
Departure: Ted Stevens Anchorage International Airport (PANC) at N/A
Arrival: Chicago/Rockford International Airport (KRFD) at N/A
Route: TED YESKA NCA13 YQD VBI J538 DLL JVL


Current Weather Information
PANC 180653Z 21011G22KT 10SM FEW012 BKN022 OVC055 03/M01 A2985 RMK AO2 SLP111 VIRGA NW-N T00281011
KRFD 180654Z 35010KT 1 1/2SM -SN BR OVC028 M07/M09 A3004 RMK AO2 SFC VIS 2 SLP184 P0001 T10671089

Route Map